sensor_id;sensor_type;location;lat;lon;timestamp;P1;durP1;ratioP1;P2;durP2;ratioP2
32637;SDS011;19045;52.268;10.506;2023-03-01T00:01:34;21.38;;;12.65;;
32637;SDS011;19045;52.268;10.506;2023-03-01T00:04:01;18.75;;;11.88;;
32637;SDS011;19045;52.268;10.506;2023-03-01T00:06:29;22.83;;;12.30;;
32637;SDS011;19045;52.268;10.506;2023-03-01T00:08:55;19.80;;;12.20;;
32637;SDS011;19045;52.268;10.506;2023-03-01T00:11:22;21.65;;;12.35;;
32637;SDS011;19045;52.268;10.506;2023-03-01T00:13:51;19.42;;;11.48;;
32637;SDS011;19045;52.268;10.506;2023-03-01T00:16:19;20.48;;;12.45;;
32637;SDS011;19045;52.268;10.506;2023-03-01T00:18:47;25.33;;;12.45;;
32637;SDS011;19045;52.268;10.506;2023-03-01T00:21:15;21.92;;;12.52;;
32637;SDS011;19045;52.268;10.506;2023-03-01T00:23:43;19.40;;;11.90;;
32637;SDS011;19045;52.268;10.506;2023-03-01T00:26:12;22.48;;;11.30;;
32637;SDS011;19045;52.268;10.506;2023-03-01T00:28:39;23.85;;;12.43;;
32637;SDS011;19045;52.268;10.506;2023-03-01T00:31:06;20.80;;;11.80;;
32637;SDS011;19045;52.268;10.506;2023-03-01T00:33:34;19.17;;;12.35;;
32637;SDS011;19045;52.268;10.506;2023-03-01T00:36:02;23.65;;;12.77;;
32637;SDS011;19045;52.268;10.506;2023-03-01T00:38:29;22.88;;;13.15;;
32637;SDS011;19045;52.268;10.506;2023-03-01T00:41:03;20.25;;;13.00;;
32637;SDS011;19045;52.268;10.506;2023-03-01T00:43:31;23.02;;;13.48;;
32637;SDS011;19045;52.268;10.506;2023-03-01T00:46:01;20.67;;;11.63;;
32637;SDS011;19045;52.268;10.506;2023-03-01T00:48:28;22.65;;;12.52;;
32637;SDS011;19045;52.268;10.506;2023-03-01T00:50:55;25.33;;;13.15;;
32637;SDS011;19045;52.268;10.506;2023-03-01T00:53:21;22.42;;;11.93;;
32637;SDS011;19045;52.268;10.506;2023-03-01T00:55:48;24.58;;;13.48;;
32637;SDS011;19045;52.268;10.506;2023-03-01T00:58:17;23.67;;;13.00;;
32637;SDS011;19045;52.268;10.506;2023-03-01T01:00:44;28.10;;;12.70;;
32637;SDS011;19045;52.268;10.506;2023-03-01T01:03:10;19.27;;;12.00;;
32637;SDS011;19045;52.268;10.506;2023-03-01T01:05:37;25.15;;;13.32;;
32637;SDS011;19045;52.268;10.506;2023-03-01T01:08:03;22.98;;;12.32;;
32637;SDS011;19045;52.268;10.506;2023-03-01T01:10:30;20.92;;;12.23;;
32637;SDS011;19045;52.268;10.506;2023-03-01T01:12:59;21.80;;;12.90;;
32637;SDS011;19045;52.268;10.506;2023-03-01T01:15:27;25.05;;;12.93;;
32637;SDS011;19045;52.268;10.506;2023-03-01T01:17:53;22.48;;;12.25;;
32637;SDS011;19045;52.268;10.506;2023-03-01T01:20:20;18.80;;;12.25;;
32637;SDS011;19045;52.268;10.506;2023-03-01T01:22:47;20.67;;;12.07;;
32637;SDS011;19045;52.268;10.506;2023-03-01T01:25:13;21.35;;;12.27;;
32637;SDS011;19045;52.268;10.506;2023-03-01T01:27:40;17.70;;;11.65;;
32637;SDS011;19045;52.268;10.506;2023-03-01T01:30:07;20.48;;;12.98;;
32637;SDS011;19045;52.268;10.506;2023-03-01T01:32:36;23.45;;;12.63;;
32637;SDS011;19045;52.268;10.506;2023-03-01T01:35:02;20.63;;;12.45;;
32637;SDS011;19045;52.268;10.506;2023-03-01T01:37:29;19.27;;;12.02;;
32637;SDS011;19045;52.268;10.506;2023-03-01T01:39:58;21.33;;;11.98;;
32637;SDS011;19045;52.268;10.506;2023-03-01T01:42:25;23.08;;;12.73;;
32637;SDS011;19045;52.268;10.506;2023-03-01T01:47:54;19.08;;;12.77;;
32637;SDS011;19045;52.268;10.506;2023-03-01T01:52:51;22.30;;;13.35;;
32637;SDS011;19045;52.268;10.506;2023-03-01T01:55:20;24.00;;;13.70;;
32637;SDS011;19045;52.268;10.506;2023-03-01T01:57:50;19.30;;;12.60;;
32637;SDS011;19045;52.268;10.506;2023-03-01T02:00:20;25.48;;;13.75;;
32637;SDS011;19045;52.268;10.506;2023-03-01T02:02:48;21.52;;;13.32;;
32637;SDS011;19045;52.268;10.506;2023-03-01T02:05:24;21.92;;;10.57;;
32637;SDS011;19045;52.268;10.506;2023-03-01T02:07:55;23.88;;;14.02;;
32637;SDS011;19045;52.268;10.506;2023-03-01T02:10:24;27.08;;;14.70;;
32637;SDS011;19045;52.268;10.506;2023-03-01T02:12:53;25.75;;;13.85;;
32637;SDS011;19045;52.268;10.506;2023-03-01T02:15:21;26.85;;;13.73;;
32637;SDS011;19045;52.268;10.506;2023-03-01T02:17:48;22.08;;;13.75;;
32637;SDS011;19045;52.268;10.506;2023-03-01T02:20:16;26.88;;;13.25;;
32637;SDS011;19045;52.268;10.506;2023-03-01T02:22:49;20.75;;;12.48;;
32637;SDS011;19045;52.268;10.506;2023-03-01T02:25:23;22.05;;;13.57;;
32637;SDS011;19045;52.268;10.506;2023-03-01T02:27:54;26.13;;;13.68;;
32637;SDS011;19045;52.268;10.506;2023-03-01T02:30:29;23.10;;;13.32;;
32637;SDS011;19045;52.268;10.506;2023-03-01T02:32:57;24.95;;;13.52;;
32637;SDS011;19045;52.268;10.506;2023-03-01T02:35:27;24.23;;;13.43;;
32637;SDS011;19045;52.268;10.506;2023-03-01T02:37:56;23.63;;;13.95;;
32637;SDS011;19045;52.268;10.506;2023-03-01T02:40:26;20.90;;;13.07;;
32637;SDS011;19045;52.268;10.506;2023-03-01T02:42:56;21.33;;;13.35;;
32637;SDS011;19045;52.268;10.506;2023-03-01T02:45:24;23.40;;;13.10;;
32637;SDS011;19045;52.268;10.506;2023-03-01T02:47:54;22.92;;;13.40;;
32637;SDS011;19045;52.268;10.506;2023-03-01T02:50:24;24.63;;;13.48;;
32637;SDS011;19045;52.268;10.506;2023-03-01T02:53:10;26.35;;;13.45;;
32637;SDS011;19045;52.268;10.506;2023-03-01T02:55:42;23.83;;;13.02;;
32637;SDS011;19045;52.268;10.506;2023-03-01T02:58:09;19.77;;;12.93;;
32637;SDS011;19045;52.268;10.506;2023-03-01T03:00:36;24.27;;;13.68;;
32637;SDS011;19045;52.268;10.506;2023-03-01T03:03:13;21.17;;;12.68;;
32637;SDS011;19045;52.268;10.506;2023-03-01T03:05:42;22.15;;;13.00;;
32637;SDS011;19045;52.268;10.506;2023-03-01T03:08:09;23.00;;;13.45;;
32637;SDS011;19045;52.268;10.506;2023-03-01T03:10:37;22.70;;;13.48;;
32637;SDS011;19045;52.268;10.506;2023-03-01T03:13:06;21.90;;;12.98;;
32637;SDS011;19045;52.268;10.506;2023-03-01T03:15:34;20.42;;;12.23;;
32637;SDS011;19045;52.268;10.506;2023-03-01T03:18:01;21.38;;;13.23;;
32637;SDS011;19045;52.268;10.506;2023-03-01T03:20:31;22.42;;;13.15;;
32637;SDS011;19045;52.268;10.506;2023-03-01T03:22:58;27.83;;;14.13;;
32637;SDS011;19045;52.268;10.506;2023-03-01T03:25:25;19.17;;;12.88;;
32637;SDS011;19045;52.268;10.506;2023-03-01T03:27:53;19.83;;;13.02;;
32637;SDS011;19045;52.268;10.506;2023-03-01T03:30:23;22.55;;;13.40;;
32637;SDS011;19045;52.268;10.506;2023-03-01T03:32:51;22.25;;;12.50;;
32637;SDS011;19045;52.268;10.506;2023-03-01T03:35:18;19.00;;;12.65;;
32637;SDS011;19045;52.268;10.506;2023-03-01T03:37:47;25.27;;;13.68;;
32637;SDS011;19045;52.268;10.506;2023-03-01T03:40:32;20.15;;;12.68;;
32637;SDS011;19045;52.268;10.506;2023-03-01T03:43:00;20.38;;;12.95;;
32637;SDS011;19045;52.268;10.506;2023-03-01T03:45:27;22.75;;;12.93;;
32637;SDS011;19045;52.268;10.506;2023-03-01T03:47:58;23.90;;;12.82;;
32637;SDS011;19045;52.268;10.506;2023-03-01T03:50:25;23.00;;;12.57;;
32637;SDS011;19045;52.268;10.506;2023-03-01T03:52:53;19.15;;;11.80;;
32637;SDS011;19045;52.268;10.506;2023-03-01T03:55:19;18.75;;;12.48;;
32637;SDS011;19045;52.268;10.506;2023-03-01T03:57:47;23.02;;;12.73;;
32637;SDS011;19045;52.268;10.506;2023-03-01T04:00:17;20.73;;;12.82;;
32637;SDS011;19045;52.268;10.506;2023-03-01T04:02:46;19.67;;;11.88;;
32637;SDS011;19045;52.268;10.506;2023-03-01T04:05:15;19.23;;;10.93;;
32637;SDS011;19045;52.268;10.506;2023-03-01T04:07:43;20.13;;;11.82;;
32637;SDS011;19045;52.268;10.506;2023-03-01T04:10:13;17.02;;;10.82;;
32637;SDS011;19045;52.268;10.506;2023-03-01T04:12:41;18.00;;;11.93;;
32637;SDS011;19045;52.268;10.506;2023-03-01T04:15:09;19.48;;;12.00;;
32637;SDS011;19045;52.268;10.506;2023-03-01T04:17:38;26.20;;;13.27;;
32637;SDS011;19045;52.268;10.506;2023-03-01T04:20:07;20.40;;;12.32;;
32637;SDS011;19045;52.268;10.506;2023-03-01T04:22:34;25.52;;;13.10;;
32637;SDS011;19045;52.268;10.506;2023-03-01T04:25:01;21.50;;;12.70;;
32637;SDS011;19045;52.268;10.506;2023-03-01T04:27:33;23.23;;;12.85;;
32637;SDS011;19045;52.268;10.506;2023-03-01T04:29:59;23.85;;;14.27;;
32637;SDS011;19045;52.268;10.506;2023-03-01T04:32:26;19.42;;;12.07;;
32637;SDS011;19045;52.268;10.506;2023-03-01T04:34:53;18.88;;;12.23;;
32637;SDS011;19045;52.268;10.506;2023-03-01T04:37:20;24.42;;;13.63;;
32637;SDS011;19045;52.268;10.506;2023-03-01T04:39:46;19.23;;;12.60;;
32637;SDS011;19045;52.268;10.506;2023-03-01T04:42:13;23.67;;;12.50;;
32637;SDS011;19045;52.268;10.506;2023-03-01T04:44:41;25.08;;;13.55;;
32637;SDS011;19045;52.268;10.506;2023-03-01T04:47:07;22.33;;;12.85;;
32637;SDS011;19045;52.268;10.506;2023-03-01T04:49:34;20.23;;;12.32;;
32637;SDS011;19045;52.268;10.506;2023-03-01T04:52:01;20.73;;;12.73;;
32637;SDS011;19045;52.268;10.506;2023-03-01T04:54:29;20.73;;;13.45;;
32637;SDS011;19045;52.268;10.506;2023-03-01T04:56:56;23.02;;;13.57;;
32637;SDS011;19045;52.268;10.506;2023-03-01T04:59:23;17.83;;;12.02;;
32637;SDS011;19045;52.268;10.506;2023-03-01T05:01:52;23.30;;;13.77;;
32637;SDS011;19045;52.268;10.506;2023-03-01T05:04:20;23.45;;;13.35;;
32637;SDS011;19045;52.268;10.506;2023-03-01T05:06:47;19.95;;;13.02;;
32637;SDS011;19045;52.268;10.506;2023-03-01T05:09:13;20.25;;;13.05;;
32637;SDS011;19045;52.268;10.506;2023-03-01T05:11:40;21.75;;;14.05;;
32637;SDS011;19045;52.268;10.506;2023-03-01T05:14:07;25.75;;;14.73;;
32637;SDS011;19045;52.268;10.506;2023-03-01T05:16:35;24.05;;;13.85;;
32637;SDS011;19045;52.268;10.506;2023-03-01T05:19:04;23.17;;;15.65;;
32637;SDS011;19045;52.268;10.506;2023-03-01T05:21:36;21.85;;;14.20;;
32637;SDS011;19045;52.268;10.506;2023-03-01T05:24:23;23.42;;;14.95;;
32637;SDS011;19045;52.268;10.506;2023-03-01T05:26:50;20.83;;;13.77;;
32637;SDS011;19045;52.268;10.506;2023-03-01T05:29:17;29.02;;;15.75;;
32637;SDS011;19045;52.268;10.506;2023-03-01T05:31:50;28.05;;;14.80;;
32637;SDS011;19045;52.268;10.506;2023-03-01T05:34:22;29.80;;;17.80;;
32637;SDS011;19045;52.268;10.506;2023-03-01T05:36:50;29.55;;;17.33;;
32637;SDS011;19045;52.268;10.506;2023-03-01T05:39:18;28.75;;;17.58;;
32637;SDS011;19045;52.268;10.506;2023-03-01T05:41:46;33.03;;;17.35;;
32637;SDS011;19045;52.268;10.506;2023-03-01T05:44:12;30.60;;;18.33;;
32637;SDS011;19045;52.268;10.506;2023-03-01T05:46:39;37.58;;;18.30;;
32637;SDS011;19045;52.268;10.506;2023-03-01T05:49:05;37.20;;;20.27;;
32637;SDS011;19045;52.268;10.506;2023-03-01T05:51:33;30.50;;;18.60;;
32637;SDS011;19045;52.268;10.506;2023-03-01T05:54:00;32.92;;;19.00;;
32637;SDS011;19045;52.268;10.506;2023-03-01T05:56:27;34.42;;;19.98;;
32637;SDS011;19045;52.268;10.506;2023-03-01T05:58:54;31.48;;;19.70;;
32637;SDS011;19045;52.268;10.506;2023-03-01T06:01:20;36.75;;;20.30;;
32637;SDS011;19045;52.268;10.506;2023-03-01T06:03:47;48.83;;;23.95;;
32637;SDS011;19045;52.268;10.506;2023-03-01T06:06:13;45.45;;;22.95;;
32637;SDS011;19045;52.268;10.506;2023-03-01T06:08:41;45.13;;;24.42;;
32637;SDS011;19045;52.268;10.506;2023-03-01T06:11:09;40.78;;;21.95;;
32637;SDS011;19045;52.268;10.506;2023-03-01T06:13:35;41.53;;;21.80;;
32637;SDS011;19045;52.268;10.506;2023-03-01T06:16:03;43.53;;;23.00;;
32637;SDS011;19045;52.268;10.506;2023-03-01T06:18:31;37.47;;;20.98;;
32637;SDS011;19045;52.268;10.506;2023-03-01T06:20:57;38.40;;;20.38;;
32637;SDS011;19045;52.268;10.506;2023-03-01T06:23:24;36.60;;;21.77;;
32637;SDS011;19045;52.268;10.506;2023-03-01T06:25:52;33.55;;;19.17;;
32637;SDS011;19045;52.268;10.506;2023-03-01T06:28:19;45.28;;;20.95;;
32637;SDS011;19045;52.268;10.506;2023-03-01T06:30:46;36.45;;;20.48;;
32637;SDS011;19045;52.268;10.506;2023-03-01T06:33:13;37.17;;;20.08;;
32637;SDS011;19045;52.268;10.506;2023-03-01T06:35:40;34.50;;;19.45;;
32637;SDS011;19045;52.268;10.506;2023-03-01T06:38:06;33.28;;;19.58;;
32637;SDS011;19045;52.268;10.506;2023-03-01T06:40:33;36.05;;;19.17;;
32637;SDS011;19045;52.268;10.506;2023-03-01T06:43:02;35.83;;;18.45;;
32637;SDS011;19045;52.268;10.506;2023-03-01T06:45:29;40.08;;;20.40;;
32637;SDS011;19045;52.268;10.506;2023-03-01T06:48:01;35.95;;;19.02;;
32637;SDS011;19045;52.268;10.506;2023-03-01T06:50:29;35.42;;;18.75;;
32637;SDS011;19045;52.268;10.506;2023-03-01T06:52:56;38.53;;;21.25;;
32637;SDS011;19045;52.268;10.506;2023-03-01T06:55:23;37.67;;;19.92;;
32637;SDS011;19045;52.268;10.506;2023-03-01T06:57:53;34.35;;;18.48;;
32637;SDS011;19045;52.268;10.506;2023-03-01T07:00:22;38.42;;;19.00;;
32637;SDS011;19045;52.268;10.506;2023-03-01T07:02:49;32.25;;;18.88;;
32637;SDS011;19045;52.268;10.506;2023-03-01T07:05:16;35.63;;;20.02;;
32637;SDS011;19045;52.268;10.506;2023-03-01T07:07:43;35.03;;;18.42;;
32637;SDS011;19045;52.268;10.506;2023-03-01T07:10:10;33.50;;;18.33;;
32637;SDS011;19045;52.268;10.506;2023-03-01T07:12:37;31.88;;;17.77;;
32637;SDS011;19045;52.268;10.506;2023-03-01T07:15:04;34.55;;;18.75;;
32637;SDS011;19045;52.268;10.506;2023-03-01T07:17:35;27.95;;;17.85;;
32637;SDS011;19045;52.268;10.506;2023-03-01T07:20:02;37.15;;;18.42;;
32637;SDS011;19045;52.268;10.506;2023-03-01T07:22:29;37.42;;;19.00;;
32637;SDS011;19045;52.268;10.506;2023-03-01T07:24:55;29.52;;;18.45;;
32637;SDS011;19045;52.268;10.506;2023-03-01T07:27:22;32.88;;;19.15;;
32637;SDS011;19045;52.268;10.506;2023-03-01T07:29:48;32.10;;;17.38;;
32637;SDS011;19045;52.268;10.506;2023-03-01T07:32:15;33.85;;;18.48;;
32637;SDS011;19045;52.268;10.506;2023-03-01T07:34:43;32.65;;;17.98;;
32637;SDS011;19045;52.268;10.506;2023-03-01T07:37:10;30.00;;;18.45;;
32637;SDS011;19045;52.268;10.506;2023-03-01T07:39:36;32.58;;;17.65;;
32637;SDS011;19045;52.268;10.506;2023-03-01T07:42:03;35.00;;;19.30;;
32637;SDS011;19045;52.268;10.506;2023-03-01T07:44:30;35.35;;;19.95;;
32637;SDS011;19045;52.268;10.506;2023-03-01T07:46:56;30.33;;;17.48;;
32637;SDS011;19045;52.268;10.506;2023-03-01T07:49:23;32.10;;;16.25;;
32637;SDS011;19045;52.268;10.506;2023-03-01T07:51:52;31.60;;;16.30;;
32637;SDS011;19045;52.268;10.506;2023-03-01T07:54:19;35.78;;;15.43;;
32637;SDS011;19045;52.268;10.506;2023-03-01T07:56:45;30.65;;;14.77;;
32637;SDS011;19045;52.268;10.506;2023-03-01T07:59:12;26.13;;;14.90;;
32637;SDS011;19045;52.268;10.506;2023-03-01T08:01:39;25.70;;;14.32;;
32637;SDS011;19045;52.268;10.506;2023-03-01T08:04:06;24.85;;;12.60;;
32637;SDS011;19045;52.268;10.506;2023-03-01T08:06:34;21.38;;;12.65;;
32637;SDS011;19045;52.268;10.506;2023-03-01T08:09:02;21.42;;;13.13;;
32637;SDS011;19045;52.268;10.506;2023-03-01T08:11:29;21.85;;;12.27;;
32637;SDS011;19045;52.268;10.506;2023-03-01T08:13:55;33.33;;;12.80;;
32637;SDS011;19045;52.268;10.506;2023-03-01T08:16:22;21.45;;;13.05;;
32637;SDS011;19045;52.268;10.506;2023-03-01T08:18:49;22.17;;;11.13;;
32637;SDS011;19045;52.268;10.506;2023-03-01T08:21:16;22.05;;;10.95;;
32637;SDS011;19045;52.268;10.506;2023-03-01T08:23:44;16.25;;;9.60;;
32637;SDS011;19045;52.268;10.506;2023-03-01T08:26:13;19.80;;;11.35;;
32637;SDS011;19045;52.268;10.506;2023-03-01T08:28:41;15.93;;;10.27;;
32637;SDS011;19045;52.268;10.506;2023-03-01T08:31:15;16.45;;;10.93;;
32637;SDS011;19045;52.268;10.506;2023-03-01T08:33:43;22.08;;;11.52;;
32637;SDS011;19045;52.268;10.506;2023-03-01T08:36:09;21.77;;;10.82;;
32637;SDS011;19045;52.268;10.506;2023-03-01T08:38:36;18.40;;;10.43;;
32637;SDS011;19045;52.268;10.506;2023-03-01T08:41:03;17.55;;;10.38;;
32637;SDS011;19045;52.268;10.506;2023-03-01T08:43:31;14.45;;;7.95;;
32637;SDS011;19045;52.268;10.506;2023-03-01T08:45:57;11.60;;;7.18;;
32637;SDS011;19045;52.268;10.506;2023-03-01T08:48:24;10.07;;;6.38;;
32637;SDS011;19045;52.268;10.506;2023-03-01T08:50:51;15.57;;;6.65;;
32637;SDS011;19045;52.268;10.506;2023-03-01T08:53:17;10.95;;;6.22;;
32637;SDS011;19045;52.268;10.506;2023-03-01T08:55:44;10.75;;;5.90;;
32637;SDS011;19045;52.268;10.506;2023-03-01T08:58:10;14.45;;;6.70;;
32637;SDS011;19045;52.268;10.506;2023-03-01T09:00:38;9.38;;;5.57;;
32637;SDS011;19045;52.268;10.506;2023-03-01T09:03:05;10.80;;;6.15;;
32637;SDS011;19045;52.268;10.506;2023-03-01T09:05:32;8.25;;;5.25;;
32637;SDS011;19045;52.268;10.506;2023-03-01T09:07:59;8.02;;;5.30;;
32637;SDS011;19045;52.268;10.506;2023-03-01T09:10:25;10.30;;;5.72;;
32637;SDS011;19045;52.268;10.506;2023-03-01T09:12:52;8.90;;;5.03;;
32637;SDS011;19045;52.268;10.506;2023-03-01T09:15:19;10.02;;;5.13;;
32637;SDS011;19045;52.268;10.506;2023-03-01T09:17:46;10.25;;;5.20;;
32637;SDS011;19045;52.268;10.506;2023-03-01T09:20:13;7.35;;;4.75;;
32637;SDS011;19045;52.268;10.506;2023-03-01T09:22:40;8.63;;;5.00;;
32637;SDS011;19045;52.268;10.506;2023-03-01T09:25:06;7.60;;;4.70;;
32637;SDS011;19045;52.268;10.506;2023-03-01T09:27:34;9.48;;;4.70;;
32637;SDS011;19045;52.268;10.506;2023-03-01T09:30:01;8.32;;;5.15;;
32637;SDS011;19045;52.268;10.506;2023-03-01T09:32:29;8.23;;;5.05;;
32637;SDS011;19045;52.268;10.506;2023-03-01T09:34:58;7.60;;;4.50;;
32637;SDS011;19045;52.268;10.506;2023-03-01T09:37:29;7.38;;;4.63;;
32637;SDS011;19045;52.268;10.506;2023-03-01T09:39:57;8.20;;;4.35;;
32637;SDS011;19045;52.268;10.506;2023-03-01T09:42:24;6.47;;;4.47;;
32637;SDS011;19045;52.268;10.506;2023-03-01T09:44:52;9.52;;;4.60;;
32637;SDS011;19045;52.268;10.506;2023-03-01T09:47:24;6.13;;;4.20;;
32637;SDS011;19045;52.268;10.506;2023-03-01T09:49:58;6.53;;;3.97;;
32637;SDS011;19045;52.268;10.506;2023-03-01T09:52:34;7.03;;;4.15;;
32637;SDS011;19045;52.268;10.506;2023-03-01T09:55:08;6.55;;;4.35;;
32637;SDS011;19045;52.268;10.506;2023-03-01T09:57:38;5.53;;;4.00;;
32637;SDS011;19045;52.268;10.506;2023-03-01T10:03:07;6.68;;;3.92;;
32637;SDS011;19045;52.268;10.506;2023-03-01T10:05:43;4.53;;;3.58;;
32637;SDS011;19045;52.268;10.506;2023-03-01T10:11:17;7.47;;;4.22;;
32637;SDS011;19045;52.268;10.506;2023-03-01T10:13:48;5.47;;;3.63;;
32637;SDS011;19045;52.268;10.506;2023-03-01T10:16:21;5.13;;;3.40;;
32637;SDS011;19045;52.268;10.506;2023-03-01T10:18:53;6.15;;;3.28;;
32637;SDS011;19045;52.268;10.506;2023-03-01T10:23:53;5.25;;;3.10;;
32637;SDS011;19045;52.268;10.506;2023-03-01T10:26:34;5.45;;;3.58;;
32637;SDS011;19045;52.268;10.506;2023-03-01T10:29:10;4.40;;;3.10;;
32637;SDS011;19045;52.268;10.506;2023-03-01T10:31:38;4.97;;;3.42;;
32637;SDS011;19045;52.268;10.506;2023-03-01T10:34:13;5.03;;;3.22;;
32637;SDS011;19045;52.268;10.506;2023-03-01T10:36:43;4.15;;;2.90;;
32637;SDS011;19045;52.268;10.506;2023-03-01T10:39:15;4.35;;;3.15;;
32637;SDS011;19045;52.268;10.506;2023-03-01T10:41:59;4.50;;;2.90;;
32637;SDS011;19045;52.268;10.506;2023-03-01T10:44:36;6.55;;;3.47;;
32637;SDS011;19045;52.268;10.506;2023-03-01T10:47:12;2.88;;;2.55;;
32637;SDS011;19045;52.268;10.506;2023-03-01T10:49:52;4.88;;;3.15;;
32637;SDS011;19045;52.268;10.506;2023-03-01T10:52:23;4.25;;;2.80;;
32637;SDS011;19045;52.268;10.506;2023-03-01T10:54:51;7.13;;;3.33;;
32637;SDS011;19045;52.268;10.506;2023-03-01T10:57:30;5.35;;;2.92;;
32637;SDS011;19045;52.268;10.506;2023-03-01T11:00:05;3.50;;;2.90;;
32637;SDS011;19045;52.268;10.506;2023-03-01T11:02:49;5.03;;;3.33;;
32637;SDS011;19045;52.268;10.506;2023-03-01T11:05:19;5.70;;;2.92;;
32637;SDS011;19045;52.268;10.506;2023-03-01T11:07:50;4.90;;;3.17;;
32637;SDS011;19045;52.268;10.506;2023-03-01T11:10:20;3.75;;;2.95;;
32637;SDS011;19045;52.268;10.506;2023-03-01T11:12:50;4.88;;;3.17;;
32637;SDS011;19045;52.268;10.506;2023-03-01T11:15:21;4.43;;;3.05;;
32637;SDS011;19045;52.268;10.506;2023-03-01T11:17:51;3.95;;;3.03;;
32637;SDS011;19045;52.268;10.506;2023-03-01T11:20:20;4.88;;;3.25;;
32637;SDS011;19045;52.268;10.506;2023-03-01T11:22:53;7.95;;;3.60;;
32637;SDS011;19045;52.268;10.506;2023-03-01T11:25:24;4.32;;;2.75;;
32637;SDS011;19045;52.268;10.506;2023-03-01T11:27:53;4.32;;;2.90;;
32637;SDS011;19045;52.268;10.506;2023-03-01T11:30:23;4.40;;;2.50;;
32637;SDS011;19045;52.268;10.506;2023-03-01T11:32:55;4.63;;;2.13;;
32637;SDS011;19045;52.268;10.506;2023-03-01T11:35:29;4.55;;;2.90;;
32637;SDS011;19045;52.268;10.506;2023-03-01T11:38:02;4.32;;;2.78;;
32637;SDS011;19045;52.268;10.506;2023-03-01T11:40:41;3.97;;;2.83;;
32637;SDS011;19045;52.268;10.506;2023-03-01T11:43:15;3.50;;;2.60;;
32637;SDS011;19045;52.268;10.506;2023-03-01T11:48:49;3.80;;;3.05;;
32637;SDS011;19045;52.268;10.506;2023-03-01T11:51:24;5.00;;;2.67;;
32637;SDS011;19045;52.268;10.506;2023-03-01T11:54:02;6.18;;;2.63;;
32637;SDS011;19045;52.268;10.506;2023-03-01T11:56:37;3.28;;;2.63;;
32637;SDS011;19045;52.268;10.506;2023-03-01T11:59:13;4.07;;;2.60;;
32637;SDS011;19045;52.268;10.506;2023-03-01T12:02:07;4.18;;;2.35;;
32637;SDS011;19045;52.268;10.506;2023-03-01T12:04:58;4.10;;;2.38;;
32637;SDS011;19045;52.268;10.506;2023-03-01T12:07:41;3.50;;;2.30;;
32637;SDS011;19045;52.268;10.506;2023-03-01T12:10:20;3.60;;;2.28;;
32637;SDS011;19045;52.268;10.506;2023-03-01T12:12:57;3.75;;;2.60;;
32637;SDS011;19045;52.268;10.506;2023-03-01T12:15:46;4.75;;;3.15;;
32637;SDS011;19045;52.268;10.506;2023-03-01T12:18:34;4.07;;;2.90;;
32637;SDS011;19045;52.268;10.506;2023-03-01T12:21:28;3.85;;;2.50;;
32637;SDS011;19045;52.268;10.506;2023-03-01T12:24:06;3.70;;;2.30;;
32637;SDS011;19045;52.268;10.506;2023-03-01T12:27:05;7.85;;;2.85;;
32637;SDS011;19045;52.268;10.506;2023-03-01T12:29:46;4.03;;;2.50;;
32637;SDS011;19045;52.268;10.506;2023-03-01T12:32:23;3.65;;;2.58;;
32637;SDS011;19045;52.268;10.506;2023-03-01T12:37:59;4.25;;;2.58;;
32637;SDS011;19045;52.268;10.506;2023-03-01T12:40:40;4.03;;;2.70;;
32637;SDS011;19045;52.268;10.506;2023-03-01T12:43:22;4.07;;;2.90;;
32637;SDS011;19045;52.268;10.506;2023-03-01T12:46:04;3.50;;;2.67;;
32637;SDS011;19045;52.268;10.506;2023-03-01T12:48:43;6.72;;;2.78;;
32637;SDS011;19045;52.268;10.506;2023-03-01T12:51:18;4.40;;;2.58;;
32637;SDS011;19045;52.268;10.506;2023-03-01T12:53:50;4.10;;;2.78;;
32637;SDS011;19045;52.268;10.506;2023-03-01T12:56:19;5.50;;;2.47;;
32637;SDS011;19045;52.268;10.506;2023-03-01T12:58:53;3.03;;;2.42;;
32637;SDS011;19045;52.268;10.506;2023-03-01T13:01:31;3.88;;;2.20;;
32637;SDS011;19045;52.268;10.506;2023-03-01T13:04:07;3.58;;;2.70;;
32637;SDS011;19045;52.268;10.506;2023-03-01T13:06:43;4.65;;;3.20;;
32637;SDS011;19045;52.268;10.506;2023-03-01T13:09:20;3.38;;;2.55;;
32637;SDS011;19045;52.268;10.506;2023-03-01T13:11:55;6.03;;;2.60;;
32637;SDS011;19045;52.268;10.506;2023-03-01T13:14:39;4.70;;;3.30;;
32637;SDS011;19045;52.268;10.506;2023-03-01T13:17:31;3.75;;;2.78;;
32637;SDS011;19045;52.268;10.506;2023-03-01T13:19:59;3.60;;;2.45;;
32637;SDS011;19045;52.268;10.506;2023-03-01T13:22:27;4.88;;;2.80;;
32637;SDS011;19045;52.268;10.506;2023-03-01T13:25:01;4.15;;;2.80;;
32637;SDS011;19045;52.268;10.506;2023-03-01T13:27:29;4.65;;;2.85;;
32637;SDS011;19045;52.268;10.506;2023-03-01T13:29:59;3.60;;;2.22;;
32637;SDS011;19045;52.268;10.506;2023-03-01T13:32:30;3.78;;;2.97;;
32637;SDS011;19045;52.268;10.506;2023-03-01T13:34:58;5.40;;;2.88;;
32637;SDS011;19045;52.268;10.506;2023-03-01T13:37:30;4.75;;;2.90;;
32637;SDS011;19045;52.268;10.506;2023-03-01T13:40:04;5.57;;;2.63;;
32637;SDS011;19045;52.268;10.506;2023-03-01T13:42:48;5.07;;;2.75;;
32637;SDS011;19045;52.268;10.506;2023-03-01T13:45:19;12.35;;;3.15;;
32637;SDS011;19045;52.268;10.506;2023-03-01T13:47:49;3.75;;;2.88;;
32637;SDS011;19045;52.268;10.506;2023-03-01T13:50:23;4.25;;;3.00;;
32637;SDS011;19045;52.268;10.506;2023-03-01T13:52:52;3.85;;;2.78;;
32637;SDS011;19045;52.268;10.506;2023-03-01T13:55:23;3.83;;;2.90;;
32637;SDS011;19045;52.268;10.506;2023-03-01T13:57:53;7.82;;;2.92;;
32637;SDS011;19045;52.268;10.506;2023-03-01T14:00:29;6.03;;;2.70;;
32637;SDS011;19045;52.268;10.506;2023-03-01T14:03:10;3.00;;;2.25;;
32637;SDS011;19045;52.268;10.506;2023-03-01T14:05:39;5.50;;;2.92;;
32637;SDS011;19045;52.268;10.506;2023-03-01T14:08:18;5.53;;;2.80;;
32637;SDS011;19045;52.268;10.506;2023-03-01T14:10:53;4.13;;;2.85;;
32637;SDS011;19045;52.268;10.506;2023-03-01T14:13:36;5.40;;;2.92;;
32637;SDS011;19045;52.268;10.506;2023-03-01T14:16:19;4.05;;;3.03;;
32637;SDS011;19045;52.268;10.506;2023-03-01T14:18:57;4.05;;;2.72;;
32637;SDS011;19045;52.268;10.506;2023-03-01T14:21:38;4.72;;;3.45;;
32637;SDS011;19045;52.268;10.506;2023-03-01T14:24:05;4.63;;;2.80;;
32637;SDS011;19045;52.268;10.506;2023-03-01T14:26:40;5.78;;;3.72;;
32637;SDS011;19045;52.268;10.506;2023-03-01T14:29:22;7.03;;;3.65;;
32637;SDS011;19045;52.268;10.506;2023-03-01T14:31:51;6.70;;;3.60;;
32637;SDS011;19045;52.268;10.506;2023-03-01T14:34:19;4.80;;;3.42;;
32637;SDS011;19045;52.268;10.506;2023-03-01T14:36:46;5.80;;;3.42;;
32637;SDS011;19045;52.268;10.506;2023-03-01T14:39:17;7.28;;;3.20;;
32637;SDS011;19045;52.268;10.506;2023-03-01T14:41:45;5.27;;;3.57;;
32637;SDS011;19045;52.268;10.506;2023-03-01T14:44:14;5.13;;;3.47;;
32637;SDS011;19045;52.268;10.506;2023-03-01T14:46:45;5.75;;;3.90;;
32637;SDS011;19045;52.268;10.506;2023-03-01T14:49:14;5.38;;;3.42;;
32637;SDS011;19045;52.268;10.506;2023-03-01T14:51:46;5.75;;;3.40;;
32637;SDS011;19045;52.268;10.506;2023-03-01T14:54:20;5.10;;;3.15;;
32637;SDS011;19045;52.268;10.506;2023-03-01T14:56:50;6.15;;;3.20;;